createdAt,value
2022-11-17T00:02:44.990Z,5.80
2022-11-17T00:06:46.989Z,5.80
2022-11-17T00:10:48.838Z,5.80
2022-11-17T00:14:50.769Z,5.80
2022-11-17T00:19:11.176Z,5.80
2022-11-17T00:23:13.087Z,5.90
2022-11-17T00:27:15.320Z,5.80
2022-11-17T00:31:38.037Z,5.70
2022-11-17T00:35:40.003Z,5.70
2022-11-17T00:39:41.997Z,5.60
2022-11-17T00:43:43.764Z,5.70
2022-11-17T00:47:45.684Z,5.70
2022-11-17T00:51:47.690Z,5.70
2022-11-17T00:55:49.528Z,5.70
2022-11-17T00:59:51.432Z,5.60
2022-11-17T01:04:03.195Z,5.60
2022-11-17T01:08:05.591Z,5.60
2022-11-17T01:12:07.505Z,5.60
2022-11-17T01:16:14.887Z,5.70
2022-11-17T01:20:16.713Z,5.60
2022-11-17T01:24:18.711Z,5.50
2022-11-17T01:28:20.508Z,5.50
2022-11-17T01:32:46.981Z,5.50
2022-11-17T01:37:07.649Z,5.40
2022-11-17T01:41:21.308Z,5.40
2022-11-17T01:45:23.410Z,5.40
2022-11-17T01:49:25.779Z,5.30
2022-11-17T01:53:28.988Z,5.20
2022-11-17T01:57:46.433Z,5.20
2022-11-17T02:01:57.680Z,5.30
2022-11-17T02:06:12.886Z,5.30
2022-11-17T02:10:17.050Z,5.30
2022-11-17T02:14:18.989Z,5.30
2022-11-17T02:18:20.897Z,5.30
2022-11-17T02:23:03.509Z,5.30
2022-11-17T02:27:44.798Z,5.30
2022-11-17T02:31:58.196Z,5.30
2022-11-17T02:36:16.615Z,5.20
2022-11-17T02:41:00.318Z,5.20
2022-11-17T02:45:02.873Z,5.20
2022-11-17T02:49:12.477Z,5.20
2022-11-17T02:53:14.442Z,5.20
2022-11-17T02:57:40.186Z,5.20
2022-11-17T03:01:57.143Z,5.10
2022-11-17T03:06:14.505Z,5.20
2022-11-17T03:10:48.512Z,5.20
2022-11-17T03:15:14.473Z,5.10
2022-11-17T03:19:39.491Z,5.20
2022-11-17T03:23:47.106Z,5.20
2022-11-17T03:27:52.743Z,5.20
2022-11-17T03:31:58.347Z,5.20
2022-11-17T03:36:07.920Z,5.20
2022-11-17T03:40:12.407Z,5.20
2022-11-17T03:44:14.467Z,5.30
2022-11-17T03:48:45.228Z,5.20
2022-11-17T03:57:50.068Z,5.20
2022-11-17T04:01:52.127Z,5.20
2022-11-17T04:05:54.262Z,5.20
2022-11-17T04:09:56.309Z,5.10
2022-11-17T04:14:22.242Z,5.00
2022-11-17T04:18:24.160Z,5.10
2022-11-17T04:22:26.062Z,5.10
2022-11-17T04:26:46.924Z,5.10
2022-11-17T04:30:48.831Z,5.10
2022-11-17T04:34:51.917Z,5.20
2022-11-17T04:38:55.471Z,5.20
2022-11-17T04:42:57.377Z,5.20
2022-11-17T04:46:59.597Z,5.20
2022-11-17T04:51:03.744Z,5.10
2022-11-17T04:55:06.329Z,5.10
2022-11-17T04:59:08.490Z,5.10
2022-11-17T05:03:10.386Z,5.10
2022-11-17T05:07:12.342Z,5.00
2022-11-17T05:11:33.513Z,5.10
2022-11-17T05:15:53.792Z,5.10
2022-11-17T05:19:56.028Z,5.10
2022-11-17T05:24:08.724Z,5.10
2022-11-17T05:28:54.018Z,5.20
2022-11-17T05:32:56.026Z,5.10
2022-11-17T05:36:59.625Z,5.10
2022-11-17T05:41:01.709Z,5.20
2022-11-17T05:45:19.313Z,5.10
2022-11-17T05:49:29.815Z,5.20
2022-11-17T05:53:32.184Z,5.20
2022-11-17T05:57:34.376Z,5.20
2022-11-17T06:07:03.531Z,5.20
2022-11-17T06:11:05.912Z,5.30
2022-11-17T06:15:08.501Z,5.30
2022-11-17T06:19:17.233Z,5.40
2022-11-17T06:23:26.929Z,5.40
2022-11-17T06:28:22.417Z,5.40
2022-11-17T06:32:24.389Z,5.30
2022-11-17T06:36:28.822Z,5.30
2022-11-17T06:40:48.116Z,5.30
2022-11-17T06:44:53.451Z,5.30
2022-11-17T06:48:55.523Z,5.40
2022-11-17T06:53:05.759Z,5.40
2022-11-17T06:57:07.844Z,5.40
2022-11-17T07:01:14.070Z,5.40
2022-11-17T07:05:16.417Z,5.40
2022-11-17T07:09:18.406Z,5.40
2022-11-17T07:13:24.015Z,5.40
2022-11-17T07:17:25.942Z,5.40
2022-11-17T07:21:30.121Z,5.40
2022-11-17T07:25:32.103Z,5.50
2022-11-17T07:29:34.021Z,5.60
2022-11-17T07:33:36.677Z,5.60
2022-11-17T07:37:38.577Z,5.60
2022-11-17T07:41:43.655Z,5.70
2022-11-17T07:45:45.629Z,5.60
2022-11-17T07:49:47.775Z,5.70
2022-11-17T07:54:41.088Z,5.80
2022-11-17T08:05:35.912Z,5.90
2022-11-17T08:21:32.739Z,6.00
2022-11-17T08:25:35.102Z,6.00
2022-11-17T08:29:56.245Z,6.00
2022-11-17T08:33:58.278Z,6.00
2022-11-17T08:38:02.373Z,6.10
2022-11-17T08:42:04.407Z,6.10
2022-11-17T08:46:15.514Z,6.00
2022-11-17T08:50:31.981Z,6.10
2022-11-17T11:44:12.897Z,7.10
2022-11-17T12:04:52.593Z,7.40
2022-11-17T12:09:46.587Z,7.60
2022-11-17T12:13:54.311Z,7.60
2022-11-17T12:18:00.394Z,7.40
2022-11-17T12:22:02.759Z,7.30
2022-11-17T12:26:04.876Z,7.20
2022-11-17T12:30:33.075Z,7.20
2022-11-17T12:34:37.233Z,7.20
2022-11-17T12:38:40.274Z,7.10
2022-11-17T12:43:21.490Z,7.10
2022-11-17T12:47:39.423Z,7.00
2022-11-17T12:52:00.667Z,6.90
2022-11-17T12:56:25.246Z,6.70
2022-11-17T13:00:27.228Z,6.60
2022-11-17T13:04:43.867Z,6.50
2022-11-17T13:14:28.402Z,10.10
2022-11-17T13:18:40.119Z,12.40
2022-11-17T13:22:46.226Z,12.00
2022-11-17T13:27:02.787Z,11.40
2022-11-17T13:31:22.645Z,10.10
2022-11-17T13:35:31.887Z,9.30
2022-11-17T13:39:37.377Z,9.20
2022-11-17T13:43:40.077Z,9.10
2022-11-17T13:47:50.760Z,9.10
2022-11-17T13:51:55.636Z,9.00
2022-11-17T13:55:57.929Z,8.90
2022-11-17T14:00:00.164Z,8.90
2022-11-17T14:04:22.444Z,8.90
2022-11-17T14:08:31.954Z,8.90
2022-11-17T14:12:37.895Z,8.90
2022-11-17T14:16:42.928Z,8.90
2022-11-17T14:20:47.610Z,8.90
2022-11-17T14:24:50.038Z,8.90
2022-11-17T14:29:14.222Z,8.80
2022-11-17T14:33:53.492Z,8.70
2022-11-17T14:37:55.977Z,8.70
2022-11-17T14:42:27.578Z,8.60
2022-11-17T14:46:38.940Z,8.50
2022-11-17T14:50:44.157Z,8.50
2022-11-17T14:55:48.742Z,8.50
2022-11-17T15:00:10.287Z,8.50
2022-11-17T15:04:49.396Z,8.40
2022-11-17T15:09:09.693Z,8.40
2022-11-17T15:13:12.171Z,8.40
2022-11-17T15:17:24.643Z,8.50
2022-11-17T15:21:26.561Z,8.40
2022-11-17T15:25:28.537Z,8.40
2022-11-17T15:29:30.589Z,8.40
2022-11-17T15:33:32.550Z,8.40
2022-11-17T15:37:35.688Z,8.40
2022-11-17T15:41:37.640Z,8.40
2022-11-17T15:45:45.727Z,8.40
2022-11-17T15:49:47.720Z,8.40
2022-11-17T15:53:51.047Z,8.40
2022-11-17T15:57:54.877Z,8.40
2022-11-17T16:02:00.449Z,8.40
2022-11-17T16:06:02.648Z,8.30
2022-11-17T16:10:05.293Z,8.30
2022-11-17T16:14:10.362Z,8.20
2022-11-17T16:18:12.331Z,8.20
2022-11-17T16:22:14.307Z,8.20
2022-11-17T16:26:19.554Z,8.20
2022-11-17T16:30:21.484Z,8.10
2022-11-17T16:34:25.814Z,8.10
2022-11-17T16:38:33.397Z,8.10
2022-11-17T16:42:35.460Z,8.20
2022-11-17T16:46:37.811Z,8.20
2022-11-17T16:50:54.438Z,8.20
2022-11-17T16:55:01.771Z,8.20
2022-11-17T16:59:06.556Z,8.10
2022-11-17T17:03:09.460Z,8.10
2022-11-17T17:07:14.249Z,8.10
2022-11-17T17:11:25.300Z,8.10
2022-11-17T17:15:36.986Z,8.10
2022-11-17T17:19:47.104Z,8.10
2022-11-17T17:29:09.073Z,8.10
2022-11-17T17:33:46.443Z,8.10
2022-11-17T17:40:03.974Z,8.10
2022-11-17T17:48:29.038Z,8.10
2022-11-17T18:04:36.078Z,8.10
2022-11-17T18:25:12.515Z,8.00
2022-11-17T18:29:21.341Z,8.00
2022-11-17T19:23:31.333Z,7.30
2022-11-17T20:54:15.713Z,7.70
2022-11-17T20:58:21.439Z,7.70
2022-11-17T21:07:08.863Z,7.70
2022-11-17T21:11:36.282Z,7.70
2022-11-17T21:15:38.218Z,7.70
2022-11-17T21:19:40.186Z,7.80
2022-11-17T21:23:44.618Z,7.80
2022-11-17T21:27:47.816Z,7.80
2022-11-17T21:37:05.402Z,7.90
2022-11-17T21:41:16.847Z,7.90
2022-11-17T21:45:19.076Z,7.90
2022-11-17T21:49:28.232Z,7.90
2022-11-17T21:53:37.485Z,7.80
2022-11-17T21:57:41.997Z,7.90
2022-11-17T22:01:44.008Z,7.90
2022-11-17T22:05:46.053Z,7.90
2022-11-17T22:09:59.930Z,7.90
2022-11-17T22:14:10.609Z,7.90
2022-11-17T22:18:12.578Z,8.00
2022-11-17T22:22:14.506Z,7.90
2022-11-17T22:26:16.781Z,8.00
2022-11-17T22:30:18.700Z,8.00
2022-11-17T22:34:20.693Z,7.90
2022-11-17T22:38:23.881Z,7.90
2022-11-17T22:42:25.768Z,7.90
2022-11-17T22:46:31.091Z,7.90
2022-11-17T22:50:33.131Z,8.00
2022-11-17T22:54:35.471Z,7.90
2022-11-17T22:58:37.393Z,7.90
2022-11-17T23:02:39.272Z,7.90
2022-11-17T23:06:41.127Z,7.90
2022-11-17T23:10:45.546Z,7.90
2022-11-17T23:14:47.547Z,7.90
2022-11-17T23:18:55.443Z,7.90
2022-11-17T23:22:57.533Z,8.00
2022-11-17T23:26:59.496Z,8.00
2022-11-17T23:31:03.391Z,7.90
2022-11-17T23:35:10.617Z,8.00
2022-11-17T23:39:12.779Z,8.00
2022-11-17T23:43:14.730Z,8.00
2022-11-17T23:47:19.110Z,8.10
2022-11-17T23:52:01.270Z,8.10
2022-11-17T23:56:14.069Z,8.20
